Time;durP1;ratioP1;P1;durP2;ratioP2;P2;SDS_P1;SDS_P2;PMS_P1;PMS_P2;Temp;Humidity;BMP_temperature;BMP_pressure;BME280_temperature;BME280_humidity;BME280_pressure;Samples;Min_cycle;Max_cycle;Signal;HPM_P1;HPM_P2
2021/12/09 00:00:35;;;;;;;69.03;8.93;;;;;;;;;;5051774;28;20226;-65
2021/12/09 00:03:05;;;;;;;63.45;7.60;;;;;;;;;;5052089;28;20648;-65
2021/12/09 00:05:34;;;;;;;67.40;7.93;;;;;;;;;;5051835;28;20202;-65
2021/12/09 00:08:01;;;;;;;62.72;7.53;;;;;;;;;;5051469;28;20242;-65
2021/12/09 00:10:28;;;;;;;64.78;7.28;;;;;;;;;;5050887;28;20226;-65
2021/12/09 00:12:57;;;;;;;65.43;7.63;;;;;;;;;;5051581;28;20292;-65
2021/12/09 00:15:24;;;;;;;62.83;7.03;;;;;;;;;;5051592;28;20220;-65
2021/12/09 00:17:51;;;;;;;70.93;7.40;;;;;;;;;;5051580;28;20212;-65
2021/12/09 00:20:18;;;;;;;62.67;7.32;;;;;;;;;;5052125;28;20317;-65
2021/12/09 00:22:46;;;;;;;70.70;7.78;;;;;;;;;;5051585;28;20212;-65
2021/12/09 00:25:14;;;;;;;68.50;7.75;;;;;;;;;;5051434;28;20592;-65
2021/12/09 00:27:42;;;;;;;66.18;8.00;;;;;;;;;;5051519;28;20205;-65
2021/12/09 00:30:12;;;;;;;64.55;7.57;;;;;;;;;;5051819;28;20240;-65
2021/12/09 00:32:39;;;;;;;63.78;7.50;;;;;;;;;;5051559;28;20288;-65
2021/12/09 00:35:08;;;;;;;68.05;7.97;;;;;;;;;;5051484;28;20309;-64
2021/12/09 00:37:38;;;;;;;70.55;8.63;;;;;;;;;;5050955;28;20343;-65
2021/12/09 00:40:07;;;;;;;62.72;7.03;;;;;;;;;;5051675;28;20641;-65
2021/12/09 00:42:34;;;;;;;63.92;8.18;;;;;;;;;;5051582;28;20292;-65
2021/12/09 00:45:01;;;;;;;67.15;8.80;;;;;;;;;;5051466;28;20216;-65
2021/12/09 00:47:30;;;;;;;67.10;9.10;;;;;;;;;;5051266;28;20580;-65
2021/12/09 00:49:57;;;;;;;65.40;7.70;;;;;;;;;;5051186;28;20236;-65
2021/12/09 00:52:26;;;;;;;68.15;8.75;;;;;;;;;;5051502;28;20293;-64
2021/12/09 00:54:54;;;;;;;64.47;9.10;;;;;;;;;;5051244;28;20206;-65
2021/12/09 00:57:22;;;;;;;66.72;8.55;;;;;;;;;;5051310;28;20209;-65
2021/12/09 00:59:49;;;;;;;69.00;8.70;;;;;;;;;;5051276;28;20311;-65
2021/12/09 01:02:16;;;;;;;65.18;8.18;;;;;;;;;;5051344;28;20232;-64
2021/12/09 01:04:46;;;;;;;70.15;9.10;;;;;;;;;;5051135;28;20592;-64
2021/12/09 01:07:13;;;;;;;67.82;8.48;;;;;;;;;;5051070;28;20612;-64
2021/12/09 01:09:40;;;;;;;67.72;8.02;;;;;;;;;;5051059;28;20229;-65
2021/12/09 01:12:08;;;;;;;66.43;8.13;;;;;;;;;;5051269;28;20581;-65
2021/12/09 01:14:37;;;;;;;66.60;7.85;;;;;;;;;;5051140;28;20218;-65
2021/12/09 01:17:04;;;;;;;66.80;7.97;;;;;;;;;;5051049;28;20604;-65
2021/12/09 01:19:31;;;;;;;64.03;7.20;;;;;;;;;;5051070;28;20240;-64
2021/12/09 01:22:00;;;;;;;62.60;7.15;;;;;;;;;;5051378;28;20296;-65
2021/12/09 01:24:27;;;;;;;63.72;6.38;;;;;;;;;;5054789;28;20205;-65
2021/12/09 01:26:56;;;;;;;65.68;6.35;;;;;;;;;;5054801;28;20202;-64
2021/12/09 01:29:32;;;;;;;63.05;6.28;;;;;;;;;;5054269;28;20237;-65
2021/12/09 01:32:03;;;;;;;62.50;5.38;;;;;;;;;;5054968;28;20205;-65
2021/12/09 01:34:31;;;;;;;62.42;5.43;;;;;;;;;;5054810;28;20684;-65
2021/12/09 01:37:00;;;;;;;63.28;5.47;;;;;;;;;;5054440;28;20221;-64
2021/12/09 01:39:28;;;;;;;60.97;4.78;;;;;;;;;;5054155;28;20225;-65
2021/12/09 01:41:56;;;;;;;64.32;4.93;;;;;;;;;;5054465;28;20233;-65
2021/12/09 01:44:23;;;;;;;61.70;5.90;;;;;;;;;;5054630;28;20573;-65
2021/12/09 01:46:50;;;;;;;68.00;6.30;;;;;;;;;;5054258;28;20301;-65
2021/12/09 01:49:17;;;;;;;63.60;6.00;;;;;;;;;;5054022;28;20236;-65
2021/12/09 01:51:45;;;;;;;62.35;6.00;;;;;;;;;;5054264;28;20205;-65
2021/12/09 01:54:14;;;;;;;64.32;5.72;;;;;;;;;;5054264;28;20224;-65
2021/12/09 01:56:42;;;;;;;61.55;5.65;;;;;;;;;;5054057;28;20293;-65
2021/12/09 01:59:09;;;;;;;65.00;4.78;;;;;;;;;;5053766;28;20743;-65
2021/12/09 02:01:37;;;;;;;63.03;5.00;;;;;;;;;;5054093;28;20678;-65
2021/12/09 02:04:07;;;;;;;60.25;4.63;;;;;;;;;;5054016;28;20213;-65
2021/12/09 02:06:34;;;;;;;62.00;4.63;;;;;;;;;;5053998;28;20213;-64
2021/12/09 02:09:01;;;;;;;61.95;5.03;;;;;;;;;;5053496;28;20643;-65
2021/12/09 02:11:30;;;;;;;61.58;5.00;;;;;;;;;;5053855;28;20228;-64
2021/12/09 02:13:58;;;;;;;63.60;5.15;;;;;;;;;;5053792;28;20202;-64
2021/12/09 02:16:25;;;;;;;61.40;4.82;;;;;;;;;;5053721;28;20297;-64
2021/12/09 02:18:53;;;;;;;63.05;6.03;;;;;;;;;;5053514;28;20232;-64
2021/12/09 02:21:22;;;;;;;61.25;5.25;;;;;;;;;;5053845;28;20293;-64
2021/12/09 02:23:51;;;;;;;61.38;4.80;;;;;;;;;;5053563;28;20297;-65
2021/12/09 02:26:20;;;;;;;62.28;6.13;;;;;;;;;;5053531;28;20297;-65
2021/12/09 02:28:49;;;;;;;64.63;5.90;;;;;;;;;;5053127;28;20320;-65
2021/12/09 02:31:16;;;;;;;69.15;6.13;;;;;;;;;;5053633;28;20212;-64
2021/12/09 02:33:44;;;;;;;61.92;6.20;;;;;;;;;;5052524;28;20212;-64
2021/12/09 02:36:11;;;;;;;63.78;6.00;;;;;;;;;;5053190;28;20307;-65
2021/12/09 02:38:43;;;;;;;64.35;6.50;;;;;;;;;;5053567;28;20210;-65
2021/12/09 02:41:14;;;;;;;61.67;6.70;;;;;;;;;;5051990;28;20292;-64
2021/12/09 02:43:42;;;;;;;65.50;7.43;;;;;;;;;;5053785;28;20245;-64
2021/12/09 02:46:09;;;;;;;65.78;7.88;;;;;;;;;;5053459;28;20654;-65
2021/12/09 02:48:36;;;;;;;64.32;6.60;;;;;;;;;;5053107;28;20206;-64
2021/12/09 02:51:04;;;;;;;65.15;6.90;;;;;;;;;;5052986;28;20324;-65
2021/12/09 02:53:32;;;;;;;62.45;6.40;;;;;;;;;;5053125;28;20297;-65
2021/12/09 02:56:00;;;;;;;66.30;6.90;;;;;;;;;;5053039;28;20292;-64
2021/12/09 02:58:27;;;;;;;65.60;6.72;;;;;;;;;;5052669;28;20216;-64
2021/12/09 03:00:57;;;;;;;63.22;6.68;;;;;;;;;;5053196;28;20201;-64
2021/12/09 03:03:24;;;;;;;61.08;5.72;;;;;;;;;;5052971;28;20213;-65
2021/12/09 03:05:53;;;;;;;66.50;5.97;;;;;;;;;;5052934;28;20233;-65
2021/12/09 03:08:32;;;;;;;63.80;5.60;;;;;;;;;;5052957;28;20217;-64
2021/12/09 03:11:00;;;;;;;64.05;5.82;;;;;;;;;;5052792;28;20230;-65
2021/12/09 03:13:27;;;;;;;63.88;6.10;;;;;;;;;;5052957;28;20301;-64
2021/12/09 03:15:55;;;;;;;63.63;6.45;;;;;;;;;;5052776;28;20205;-64
2021/12/09 03:18:22;;;;;;;63.05;6.10;;;;;;;;;;5052519;28;20244;-65
2021/12/09 03:20:49;;;;;;;66.13;6.63;;;;;;;;;;5052640;28;20284;-65
2021/12/09 03:23:16;;;;;;;72.78;7.00;;;;;;;;;;5052518;28;20205;-64
2021/12/09 03:25:43;;;;;;;68.00;7.68;;;;;;;;;;5052492;28;20206;-64
2021/12/09 03:28:12;;;;;;;64.82;7.80;;;;;;;;;;5052224;28;20214;-64
2021/12/09 03:30:39;;;;;;;64.10;7.00;;;;;;;;;;5052225;28;20780;-64
2021/12/09 03:33:06;;;;;;;65.47;7.25;;;;;;;;;;5052368;28;20201;-65
2021/12/09 03:35:33;;;;;;;65.88;7.38;;;;;;;;;;5052255;28;20205;-64
2021/12/09 03:38:00;;;;;;;62.47;8.00;;;;;;;;;;5051882;28;20217;-64
2021/12/09 03:40:28;;;;;;;62.78;6.93;;;;;;;;;;5052378;28;20228;-65
2021/12/09 03:42:55;;;;;;;65.82;7.25;;;;;;;;;;5052420;28;20300;-64
2021/12/09 03:45:23;;;;;;;64.28;7.90;;;;;;;;;;5051993;28;20304;-64
2021/12/09 03:47:50;;;;;;;71.32;6.90;;;;;;;;;;5051809;28;20216;-65
2021/12/09 03:50:18;;;;;;;68.65;7.20;;;;;;;;;;5051864;28;20607;-65
2021/12/09 03:52:45;;;;;;;64.45;6.93;;;;;;;;;;5052263;28;20593;-65
2021/12/09 03:55:12;;;;;;;68.45;8.15;;;;;;;;;;5052102;28;20215;-64
2021/12/09 03:57:40;;;;;;;67.35;7.82;;;;;;;;;;5051673;28;20670;-65
2021/12/09 04:00:08;;;;;;;67.80;7.03;;;;;;;;;;5051919;28;20218;-64
2021/12/09 04:02:37;;;;;;;68.00;7.45;;;;;;;;;;5051891;28;20247;-64
2021/12/09 04:05:04;;;;;;;62.33;7.18;;;;;;;;;;5051630;28;20210;-64
2021/12/09 04:07:31;;;;;;;66.53;7.85;;;;;;;;;;5051560;28;20670;-65
2021/12/09 04:09:59;;;;;;;70.13;7.03;;;;;;;;;;5051735;28;20233;-64
2021/12/09 04:12:26;;;;;;;62.45;6.57;;;;;;;;;;5051744;28;20296;-64
2021/12/09 04:14:53;;;;;;;67.18;7.60;;;;;;;;;;5051777;28;20205;-64
2021/12/09 04:17:20;;;;;;;64.70;7.40;;;;;;;;;;5051323;28;20737;-64
2021/12/09 04:19:49;;;;;;;68.88;7.68;;;;;;;;;;5051537;28;20659;-64
2021/12/09 04:22:17;;;;;;;67.40;6.82;;;;;;;;;;5051793;28;20301;-64
2021/12/09 04:24:45;;;;;;;70.03;7.38;;;;;;;;;;5051683;28;20205;-64
2021/12/09 04:27:12;;;;;;;64.95;7.18;;;;;;;;;;5051446;28;20206;-64
2021/12/09 04:29:39;;;;;;;65.20;6.82;;;;;;;;;;5051545;28;20252;-65
2021/12/09 04:32:06;;;;;;;64.20;6.80;;;;;;;;;;5051540;28;20721;-64
2021/12/09 04:34:34;;;;;;;69.80;7.10;;;;;;;;;;5051731;28;20205;-65
2021/12/09 04:37:02;;;;;;;67.72;8.00;;;;;;;;;;5051466;28;20231;-64
2021/12/09 04:39:30;;;;;;;65.68;7.43;;;;;;;;;;5051312;28;20232;-65
2021/12/09 04:41:57;;;;;;;65.90;7.32;;;;;;;;;;5051485;28;20745;-64
2021/12/09 04:44:24;;;;;;;65.18;6.90;;;;;;;;;;5051389;28;20209;-65
2021/12/09 04:46:52;;;;;;;65.03;7.40;;;;;;;;;;5051311;28;20210;-64
2021/12/09 04:49:19;;;;;;;67.15;7.05;;;;;;;;;;5051233;28;20228;-65
2021/12/09 04:51:46;;;;;;;64.40;6.60;;;;;;;;;;5051344;28;20317;-65
2021/12/09 04:54:15;;;;;;;64.30;6.38;;;;;;;;;;5051522;28;20211;-65
2021/12/09 04:56:43;;;;;;;73.55;7.07;;;;;;;;;;5051406;28;20297;-65
2021/12/09 04:59:10;;;;;;;65.45;6.25;;;;;;;;;;5054873;28;20226;-65
2021/12/09 05:01:37;;;;;;;61.33;5.90;;;;;;;;;;5055469;28;20197;-65
2021/12/09 05:04:05;;;;;;;89.13;8.07;;;;;;;;;;5055332;28;20209;-64
2021/12/09 05:06:32;;;;;;;62.70;6.95;;;;;;;;;;5055244;28;20206;-64
2021/12/09 05:09:05;;;;;;;69.15;7.28;;;;;;;;;;5055214;28;20231;-65
2021/12/09 05:11:48;;;;;;;66.97;9.20;;;;;;;;;;5054991;28;20234;-65
2021/12/09 05:14:16;;;;;;;65.72;6.18;;;;;;;;;;5055068;28;20209;-65
2021/12/09 05:16:43;;;;;;;68.47;7.18;;;;;;;;;;5054841;28;20708;-65
2021/12/09 05:19:10;;;;;;;67.78;6.50;;;;;;;;;;5054575;28;20222;-64
2021/12/09 05:21:39;;;;;;;67.72;6.95;;;;;;;;;;5054906;28;20292;-65
2021/12/09 05:24:06;;;;;;;62.47;6.65;;;;;;;;;;5054759;28;20210;-65
2021/12/09 05:26:41;;;;;;;68.63;7.13;;;;;;;;;;5054629;28;20248;-64
2021/12/09 05:29:08;;;;;;;67.10;7.32;;;;;;;;;;5054578;28;20221;-65
2021/12/09 05:34:20;;;;;;;61.33;6.20;;;;;;;;;;5054673;28;20673;-65
2021/12/09 05:36:48;;;;;;;66.93;7.18;;;;;;;;;;5054402;28;20753;-65
2021/12/09 05:39:15;;;;;;;64.90;6.80;;;;;;;;;;5054187;28;20313;-65
2021/12/09 05:41:45;;;;;;;65.70;6.50;;;;;;;;;;5054673;28;20218;-64
2021/12/09 05:44:13;;;;;;;64.75;6.65;;;;;;;;;;5054537;28;20300;-65
2021/12/09 05:46:41;;;;;;;62.08;6.78;;;;;;;;;;5054330;28;20301;-64
2021/12/09 05:49:09;;;;;;;69.22;7.18;;;;;;;;;;5053836;28;20309;-64
2021/12/09 05:51:36;;;;;;;62.22;6.10;;;;;;;;;;5054435;28;20316;-65
2021/12/09 05:54:03;;;;;;;66.18;6.35;;;;;;;;;;5054466;28;20209;-65
2021/12/09 05:56:30;;;;;;;67.82;7.10;;;;;;;;;;5054298;28;20205;-65
2021/12/09 05:58:59;;;;;;;63.33;6.03;;;;;;;;;;5053979;28;20251;-65
2021/12/09 06:01:26;;;;;;;62.17;6.47;;;;;;;;;;5054139;28;20561;-65
2021/12/09 06:03:53;;;;;;;68.10;6.72;;;;;;;;;;5053905;28;20301;-65
2021/12/09 06:06:21;;;;;;;66.93;6.07;;;;;;;;;;5054189;28;20209;-64
2021/12/09 06:08:48;;;;;;;61.78;5.32;;;;;;;;;;5053820;28;20337;-65
2021/12/09 06:11:16;;;;;;;64.55;6.00;;;;;;;;;;5053960;28;20232;-65
2021/12/09 06:13:45;;;;;;;62.03;5.45;;;;;;;;;;5053864;28;20309;-65
2021/12/09 06:16:14;;;;;;;64.00;5.70;;;;;;;;;;5053597;28;20209;-65
2021/12/09 06:18:41;;;;;;;64.80;5.18;;;;;;;;;;5053732;28;20233;-64
2021/12/09 06:21:08;;;;;;;68.13;5.95;;;;;;;;;;5053879;28;20208;-65
2021/12/09 06:23:35;;;;;;;63.42;5.97;;;;;;;;;;5054086;28;20296;-65
2021/12/09 06:26:03;;;;;;;61.17;5.43;;;;;;;;;;5053622;28;20205;-65
2021/12/09 06:28:30;;;;;;;67.30;5.57;;;;;;;;;;5053153;28;20212;-65
2021/12/09 06:30:58;;;;;;;60.75;5.07;;;;;;;;;;5053735;28;20317;-65
2021/12/09 06:33:26;;;;;;;60.92;5.15;;;;;;;;;;5053692;28;20208;-65
2021/12/09 06:35:53;;;;;;;63.67;4.93;;;;;;;;;;5053608;28;20421;-65
2021/12/09 06:38:20;;;;;;;64.50;5.05;;;;;;;;;;5053321;28;20214;-65
2021/12/09 06:40:48;;;;;;;62.35;5.50;;;;;;;;;;5053423;28;20317;-64
2021/12/09 06:43:16;;;;;;;61.45;5.45;;;;;;;;;;5053338;28;20275;-64
2021/12/09 06:45:43;;;;;;;64.60;6.03;;;;;;;;;;5053363;28;20308;-65
2021/12/09 06:48:10;;;;;;;63.83;5.90;;;;;;;;;;5052987;28;20292;-64
2021/12/09 06:50:39;;;;;;;68.97;6.20;;;;;;;;;;5053207;28;20225;-65
2021/12/09 06:53:06;;;;;;;64.05;5.55;;;;;;;;;;5053220;28;20214;-64
2021/12/09 06:55:33;;;;;;;63.53;6.18;;;;;;;;;;5053037;28;20205;-65
2021/12/09 06:58:01;;;;;;;65.43;6.45;;;;;;;;;;5052724;28;20206;-65
2021/12/09 07:00:31;;;;;;;62.13;5.80;;;;;;;;;;5053110;28;20312;-65
2021/12/09 07:02:58;;;;;;;63.75;5.65;;;;;;;;;;5053001;28;20398;-65
2021/12/09 07:05:26;;;;;;;64.68;6.85;;;;;;;;;;5052942;28;20205;-65
2021/12/09 07:07:55;;;;;;;61.88;6.20;;;;;;;;;;5052525;28;20300;-65
2021/12/09 07:10:23;;;;;;;69.95;6.40;;;;;;;;;;5052500;28;20312;-65
2021/12/09 07:12:50;;;;;;;66.60;5.57;;;;;;;;;;5052939;28;20233;-65
2021/12/09 07:15:18;;;;;;;64.60;5.13;;;;;;;;;;5052830;28;20244;-65
2021/12/09 07:17:45;;;;;;;61.17;5.72;;;;;;;;;;5052349;28;20717;-64
2021/12/09 07:20:13;;;;;;;64.68;6.07;;;;;;;;;;5052178;28;20225;-65
2021/12/09 07:22:41;;;;;;;60.45;5.30;;;;;;;;;;5052518;28;20302;-65
2021/12/09 07:25:10;;;;;;;62.78;6.22;;;;;;;;;;5052434;28;20213;-65
2021/12/09 07:27:37;;;;;;;62.40;6.05;;;;;;;;;;5052139;28;20217;-65
2021/12/09 07:30:04;;;;;;;62.80;6.93;;;;;;;;;;5052470;28;20225;-64
2021/12/09 07:32:32;;;;;;;62.35;5.32;;;;;;;;;;5052375;28;20229;-65
2021/12/09 07:34:59;;;;;;;71.07;6.45;;;;;;;;;;5052270;28;20209;-64
2021/12/09 07:37:27;;;;;;;60.58;5.72;;;;;;;;;;5051829;28;20308;-65
2021/12/09 07:39:54;;;;;;;62.20;5.63;;;;;;;;;;5052418;28;20225;-64
2021/12/09 07:42:22;;;;;;;62.03;5.90;;;;;;;;;;5052397;28;20201;-65
2021/12/09 07:44:49;;;;;;;66.72;7.57;;;;;;;;;;5052171;28;20296;-64
2021/12/09 07:47:17;;;;;;;68.53;12.77;;;;;;;;;;5051954;28;20588;-64
2021/12/09 07:49:44;;;;;;;68.78;9.50;;;;;;;;;;5051979;28;20232;-65
2021/12/09 07:52:12;;;;;;;64.80;8.35;;;;;;;;;;5052145;28;20225;-65
2021/12/09 07:54:39;;;;;;;66.40;6.50;;;;;;;;;;5051095;28;20297;-64
2021/12/09 07:57:06;;;;;;;62.40;6.63;;;;;;;;;;5051985;28;20292;-64
2021/12/09 07:59:35;;;;;;;66.93;6.97;;;;;;;;;;5051703;28;20725;-65
2021/12/09 08:02:02;;;;;;;64.03;6.05;;;;;;;;;;5051833;28;20212;-64
2021/12/09 08:04:29;;;;;;;65.03;7.63;;;;;;;;;;5051856;28;20578;-65
2021/12/09 08:06:57;;;;;;;65.00;7.07;;;;;;;;;;5051897;28;20233;-64
2021/12/09 08:09:24;;;;;;;66.35;6.70;;;;;;;;;;5051412;28;20476;-65
2021/12/09 08:11:51;;;;;;;65.93;8.57;;;;;;;;;;5050042;28;20231;-65
2021/12/09 08:14:19;;;;;;;64.03;6.45;;;;;;;;;;5049984;28;20210;-65
2021/12/09 08:16:57;;;;;;;64.47;6.15;;;;;;;;;;5049882;28;20201;-64
2021/12/09 08:19:24;;;;;;;64.22;6.05;;;;;;;;;;5049859;28;20276;-65
2021/12/09 08:21:53;;;;;;;63.20;6.85;;;;;;;;;;5050115;28;20210;-65
2021/12/09 08:24:20;;;;;;;60.47;5.60;;;;;;;;;;5050428;28;20209;-65
2021/12/09 08:26:47;;;;;;;61.10;5.43;;;;;;;;;;5051588;28;20301;-65
2021/12/09 08:29:14;;;;;;;62.40;6.30;;;;;;;;;;5051377;28;20236;-64
2021/12/09 08:31:41;;;;;;;62.63;6.40;;;;;;;;;;5051459;28;20694;-65
2021/12/09 08:34:10;;;;;;;66.35;6.50;;;;;;;;;;5055870;28;20214;-64
2021/12/09 08:36:37;;;;;;;64.68;7.07;;;;;;;;;;5055874;28;20299;-65
2021/12/09 08:39:05;;;;;;;62.67;5.20;;;;;;;;;;5055407;28;20720;-65
2021/12/09 08:41:33;;;;;;;66.93;6.00;;;;;;;;;;5055690;28;20251;-65
2021/12/09 08:44:00;;;;;;;67.85;6.60;;;;;;;;;;5055717;28;20202;-65
2021/12/09 08:46:27;;;;;;;65.15;6.53;;;;;;;;;;5055811;28;20309;-64
2021/12/09 08:48:56;;;;;;;64.57;7.13;;;;;;;;;;5055509;28;20241;-64
2021/12/09 08:51:25;;;;;;;66.40;6.60;;;;;;;;;;5055449;28;20701;-64
2021/12/09 08:53:52;;;;;;;65.43;6.82;;;;;;;;;;5055591;28;20209;-64
2021/12/09 08:56:19;;;;;;;64.03;6.80;;;;;;;;;;5055405;28;20619;-64
2021/12/09 08:58:46;;;;;;;66.03;7.95;;;;;;;;;;5054906;28;20225;-64
2021/12/09 09:01:15;;;;;;;61.33;6.05;;;;;;;;;;5055340;28;20662;-64
2021/12/09 09:03:42;;;;;;;64.25;7.60;;;;;;;;;;5055453;28;20206;-64
2021/12/09 09:06:09;;;;;;;63.40;6.53;;;;;;;;;;5055335;28;20231;-65
2021/12/09 09:08:38;;;;;;;67.60;6.55;;;;;;;;;;5054871;28;20201;-65
2021/12/09 09:11:05;;;;;;;64.82;7.25;;;;;;;;;;5055020;28;20205;-65
2021/12/09 09:13:32;;;;;;;64.22;6.70;;;;;;;;;;5055363;28;20206;-65
2021/12/09 09:16:00;;;;;;;66.85;7.00;;;;;;;;;;5055260;28;20669;-65
2021/12/09 09:18:27;;;;;;;63.28;5.80;;;;;;;;;;5054694;28;20212;-64
2021/12/09 09:20:54;;;;;;;67.70;6.75;;;;;;;;;;5054931;28;20209;-64
2021/12/09 09:23:23;;;;;;;67.80;6.50;;;;;;;;;;5054999;28;20313;-65
2021/12/09 09:25:52;;;;;;;62.33;5.40;;;;;;;;;;5054687;28;20210;-64
2021/12/09 09:28:20;;;;;;;61.58;5.70;;;;;;;;;;5054812;28;20297;-65
2021/12/09 09:30:53;;;;;;;62.50;5.95;;;;;;;;;;5054882;28;20222;-64
2021/12/09 09:33:20;;;;;;;63.60;6.00;;;;;;;;;;5054974;28;20202;-65
2021/12/09 09:35:48;;;;;;;64.43;6.10;;;;;;;;;;5054764;28;20202;-65
2021/12/09 09:38:15;;;;;;;63.47;6.05;;;;;;;;;;5054353;28;20210;-64
2021/12/09 09:40:47;;;;;;;59.80;4.68;;;;;;;;;;5054691;28;20321;-64
2021/12/09 09:43:28;;;;;;;62.25;5.43;;;;;;;;;;5054138;28;20209;-65
2021/12/09 09:45:56;;;;;;;63.88;5.85;;;;;;;;;;5054413;28;20211;-65
2021/12/09 09:48:23;;;;;;;59.72;4.75;;;;;;;;;;5054701;28;20203;-65
2021/12/09 09:50:50;;;;;;;59.67;4.63;;;;;;;;;;5054805;28;20222;-65
2021/12/09 09:53:18;;;;;;;62.38;5.40;;;;;;;;;;5054716;28;20237;-65
2021/12/09 09:55:47;;;;;;;62.03;4.70;;;;;;;;;;5054238;28;20667;-65
2021/12/09 09:58:16;;;;;;;62.75;6.13;;;;;;;;;;5054048;28;20213;-65
2021/12/09 10:00:43;;;;;;;62.17;6.10;;;;;;;;;;5054149;28;20770;-65
2021/12/09 10:03:16;;;;;;;62.40;5.38;;;;;;;;;;5054211;28;20289;-65
2021/12/09 10:05:44;;;;;;;61.45;5.25;;;;;;;;;;5054373;28;20232;-64
2021/12/09 10:08:13;;;;;;;62.30;5.25;;;;;;;;;;5054031;28;20620;-65
2021/12/09 10:10:41;;;;;;;61.45;5.53;;;;;;;;;;5053959;28;20230;-65
2021/12/09 10:13:09;;;;;;;63.35;5.25;;;;;;;;;;5053982;28;20252;-64
2021/12/09 10:15:39;;;;;;;61.75;5.78;;;;;;;;;;5054406;28;20212;-65
2021/12/09 10:18:07;;;;;;;61.15;5.43;;;;;;;;;;5053614;28;20214;-65
2021/12/09 10:20:44;;;;;;;61.40;5.03;;;;;;;;;;5053998;28;20222;-65
2021/12/09 10:23:29;;;;;;;60.53;5.45;;;;;;;;;;5053971;28;20305;-64
2021/12/09 10:26:15;;;;;;;62.03;5.50;;;;;;;;;;5053747;28;20673;-64
2021/12/09 10:28:45;;;;;;;66.18;6.95;;;;;;;;;;5053337;28;20678;-64
2021/12/09 10:31:16;;;;;;;60.95;5.10;;;;;;;;;;5053672;28;20217;-65
2021/12/09 10:34:14;;;;;;;61.33;5.38;;;;;;;;;;5054163;28;20256;-65
2021/12/09 10:36:49;;;;;;;64.03;6.47;;;;;;;;;;5019389;28;20695;-65
2021/12/09 10:39:17;;;;;;;69.10;8.10;;;;;;;;;;5053404;28;20234;-65
2021/12/09 10:41:44;;;;;;;69.68;7.32;;;;;;;;;;5053475;28;20299;-64
2021/12/09 10:44:11;;;;;;;67.80;6.80;;;;;;;;;;5053572;28;20213;-65
2021/12/09 10:46:53;;;;;;;67.63;6.63;;;;;;;;;;5053354;28;20552;-64
2021/12/09 10:49:21;;;;;;;65.07;7.23;;;;;;;;;;5053287;28;20316;-64
2021/12/09 10:51:58;;;;;;;63.30;6.05;;;;;;;;;;5053398;28;20486;-64
2021/12/09 10:54:32;;;;;;;61.53;7.05;;;;;;;;;;5052668;28;20334;-65
2021/12/09 10:57:22;;;;;;;62.53;6.18;;;;;;;;;;5052906;28;20631;-65
2021/12/09 10:59:49;;;;;;;63.13;6.35;;;;;;;;;;5053328;28;20321;-64
2021/12/09 11:02:17;;;;;;;67.40;6.93;;;;;;;;;;5053321;28;20198;-65
2021/12/09 11:04:57;;;;;;;62.53;6.90;;;;;;;;;;5053105;28;20213;-65
2021/12/09 11:07:29;;;;;;;63.47;6.35;;;;;;;;;;5052626;28;20769;-65
2021/12/09 11:10:11;;;;;;;64.10;6.75;;;;;;;;;;5052784;28;20764;-65
2021/12/09 11:12:38;;;;;;;64.75;7.13;;;;;;;;;;5052683;28;20320;-65
2021/12/09 11:15:05;;;;;;;63.90;6.50;;;;;;;;;;5052910;28;20504;-64
2021/12/09 11:17:41;;;;;;;66.85;7.28;;;;;;;;;;5052639;28;20210;-65
2021/12/09 11:20:08;;;;;;;62.38;6.50;;;;;;;;;;5052671;28;20222;-65
2021/12/09 11:22:37;;;;;;;63.85;7.00;;;;;;;;;;5052529;28;20314;-65
2021/12/09 11:25:07;;;;;;;63.53;7.67;;;;;;;;;;5052540;28;20234;-65
2021/12/09 11:27:34;;;;;;;63.47;6.70;;;;;;;;;;5052505;28;20468;-65
2021/12/09 11:30:09;;;;;;;63.23;7.67;;;;;;;;;;5052544;28;20473;-65
2021/12/09 11:32:43;;;;;;;69.13;8.60;;;;;;;;;;5052482;28;20489;-65
2021/12/09 11:35:15;;;;;;;62.13;7.30;;;;;;;;;;5052665;28;20862;-65
2021/12/09 11:37:46;;;;;;;61.30;6.53;;;;;;;;;;5052047;28;20269;-65
2021/12/09 11:40:22;;;;;;;66.30;7.53;;;;;;;;;;5052413;28;20552;-65
2021/12/09 11:42:56;;;;;;;64.43;8.03;;;;;;;;;;5052350;28;21016;-65
2021/12/09 11:45:25;;;;;;;68.13;7.87;;;;;;;;;;5053099;28;20463;-65
2021/12/09 11:47:55;;;;;;;65.97;7.17;;;;;;;;;;5071948;28;20449;-64
2021/12/09 11:50:23;;;;;;;65.40;7.27;;;;;;;;;;5069896;28;20476;-65
2021/12/09 11:52:51;;;;;;;65.20;7.30;;;;;;;;;;5071537;28;20484;-64
2021/12/09 11:55:20;;;;;;;65.27;7.47;;;;;;;;;;5071867;28;20449;-64
2021/12/09 11:57:53;;;;;;;65.50;8.00;;;;;;;;;;5070994;28;20453;-65
2021/12/09 12:11:56;;;;;;;68.73;10.90;;;;;;;;;;5071796;28;20420;-65
2021/12/09 12:14:34;;;;;;;63.43;7.93;;;;;;;;;;5071671;28;20537;-65
2021/12/09 12:20:14;;;;;;;68.50;9.13;;;;;;;;;;5067765;28;20492;-65
2021/12/09 12:23:02;;;;;;;70.03;9.37;;;;;;;;;;5069515;28;20452;-65
2021/12/09 12:26:05;;;;;;;69.77;9.30;;;;;;;;;;5070860;28;20448;-64
2021/12/09 12:28:45;;;;;;;76.90;10.23;;;;;;;;;;5070374;28;20446;-65
2021/12/09 12:31:47;;;;;;;66.40;9.70;;;;;;;;;;5071841;28;20504;-65
2021/12/09 12:34:34;;;;;;;68.93;10.07;;;;;;;;;;5070645;28;20442;-64
2021/12/09 12:37:18;;;;;;;67.43;9.80;;;;;;;;;;5069871;28;20224;-65
2021/12/09 12:40:04;;;;;;;68.47;10.47;;;;;;;;;;5071426;28;20480;-65
2021/12/09 12:42:47;;;;;;;75.40;11.17;;;;;;;;;;5071041;28;20461;-64
2021/12/09 12:45:25;;;;;;;68.27;10.50;;;;;;;;;;5071192;28;20458;-65
2021/12/09 12:47:58;;;;;;;69.90;10.00;;;;;;;;;;5071128;28;20453;-65
2021/12/09 12:50:25;;;;;;;67.63;10.67;;;;;;;;;;5071458;28;20477;-65
2021/12/09 12:52:55;;;;;;;71.33;11.63;;;;;;;;;;5071193;28;20478;-65
2021/12/09 12:55:26;;;;;;;70.10;12.90;;;;;;;;;;5061640;28;20455;-65
2021/12/09 12:57:54;;;;;;;67.90;9.53;;;;;;;;;;5051086;28;20502;-65
2021/12/09 13:00:24;;;;;;;66.47;8.10;;;;;;;;;;5051572;28;20911;-65
2021/12/09 13:05:52;;;;;;;64.20;6.13;;;;;;;;;;5051088;28;20913;-65
2021/12/09 13:08:44;;;;;;;65.67;6.57;;;;;;;;;;5051033;28;20507;-66
2021/12/09 13:11:25;;;;;;;62.47;5.97;;;;;;;;;;5051483;28;20474;-66
2021/12/09 13:14:02;;;;;;;63.67;5.70;;;;;;;;;;5051287;28;20856;-65
2021/12/09 13:16:41;;;;;;;63.90;5.70;;;;;;;;;;5050872;28;20452;-65
2021/12/09 13:19:31;;;;;;;62.47;6.23;;;;;;;;;;5052800;28;20968;-65
2021/12/09 13:22:00;;;;;;;63.77;5.63;;;;;;;;;;5054991;28;20830;-64
2021/12/09 13:24:32;;;;;;;62.63;5.60;;;;;;;;;;5054829;28;20455;-65
2021/12/09 13:27:22;;;;;;;63.63;5.37;;;;;;;;;;5054345;28;20940;-65
2021/12/09 13:30:04;;;;;;;62.33;5.37;;;;;;;;;;5054935;28;20855;-65
2021/12/09 13:33:08;;;;;;;62.30;4.80;;;;;;;;;;5054792;28;20490;-65
2021/12/09 13:35:53;;;;;;;67.00;6.07;;;;;;;;;;5054430;28;20462;-64
2021/12/09 13:47:03;;;;;;;63.10;5.47;;;;;;;;;;5054064;28;20206;-65
2021/12/09 13:49:43;;;;;;;64.10;5.47;;;;;;;;;;5053989;28;20239;-64
2021/12/09 13:54:53;;;;;;;66.27;6.63;;;;;;;;;;5056278;28;20315;-65
2021/12/09 13:57:29;;;;;;;66.83;6.40;;;;;;;;;;5074176;28;20454;-65
2021/12/09 13:59:58;;;;;;;61.33;5.57;;;;;;;;;;5074285;28;20471;-65
2021/12/09 14:02:26;;;;;;;62.60;5.87;;;;;;;;;;5074207;28;20533;-66
2021/12/09 14:04:54;;;;;;;64.27;6.03;;;;;;;;;;5073752;28;20979;-65
2021/12/09 14:07:27;;;;;;;64.40;6.03;;;;;;;;;;5073560;28;20486;-65
2021/12/09 14:09:58;;;;;;;62.57;5.13;;;;;;;;;;5074082;28;20476;-65
2021/12/09 14:12:29;;;;;;;70.30;6.50;;;;;;;;;;5074018;28;20447;-65
2021/12/09 14:15:05;;;;;;;65.93;5.13;;;;;;;;;;5073852;28;20536;-65
2021/12/09 14:17:32;;;;;;;63.50;5.60;;;;;;;;;;5073872;28;20508;-65
2021/12/09 14:20:03;;;;;;;62.33;4.83;;;;;;;;;;5073845;28;20469;-65
2021/12/09 14:22:31;;;;;;;64.03;6.13;;;;;;;;;;5073763;28;20537;-64
2021/12/09 14:25:01;;;;;;;69.57;9.17;;;;;;;;;;5073465;28;20837;-65
2021/12/09 14:27:28;;;;;;;64.20;6.00;;;;;;;;;;5063793;28;20455;-64
2021/12/09 14:29:56;;;;;;;63.97;6.87;;;;;;;;;;5052027;28;20474;-65
2021/12/09 14:32:26;;;;;;;64.50;6.20;;;;;;;;;;5053634;28;20452;-65
2021/12/09 14:34:54;;;;;;;62.05;5.57;;;;;;;;;;5053569;28;20456;-65
2021/12/09 14:37:22;;;;;;;63.55;5.85;;;;;;;;;;5053276;28;20240;-65
2021/12/09 14:40:01;;;;;;;63.20;5.93;;;;;;;;;;5053249;28;20714;-65
2021/12/09 14:42:28;;;;;;;62.65;5.45;;;;;;;;;;5053712;28;20210;-65
2021/12/09 14:44:56;;;;;;;69.30;8.18;;;;;;;;;;5053539;28;20239;-64
2021/12/09 14:47:25;;;;;;;66.70;6.60;;;;;;;;;;5052807;28;20211;-64
2021/12/09 14:49:54;;;;;;;65.63;6.60;;;;;;;;;;5053190;28;20465;-65
2021/12/09 14:52:28;;;;;;;66.45;5.82;;;;;;;;;;5053331;28;20444;-64
2021/12/09 14:55:10;;;;;;;61.80;5.83;;;;;;;;;;5053296;28;20275;-64
2021/12/09 14:57:37;;;;;;;64.37;6.40;;;;;;;;;;5053071;28;20444;-65
2021/12/09 15:00:04;;;;;;;64.40;6.45;;;;;;;;;;5068748;28;20814;-65
2021/12/09 15:02:42;;;;;;;62.05;5.78;;;;;;;;;;5073097;28;20292;-65
2021/12/09 15:05:15;;;;;;;65.78;6.07;;;;;;;;;;5072759;28;20570;-65
2021/12/09 15:07:48;;;;;;;63.23;5.97;;;;;;;;;;5054230;28;20210;-64
2021/12/09 15:10:15;;;;;;;62.17;5.10;;;;;;;;;;5051832;28;20469;-64
2021/12/09 15:12:44;;;;;;;65.27;6.17;;;;;;;;;;5052484;28;20540;-65
2021/12/09 15:15:18;;;;;;;62.08;5.45;;;;;;;;;;5052228;28;20448;-64